Portada
METAR-TAF:

METAR-TAF

Aeroports :

Puerto Princesa, Filipines

latitud: 09-44-32N, longitud: 118-45-31E, altitud: 22 m

Observació

L'informe es va fer fa 1 hora i 50 minuts, a les 12:00 UTC
Vent 4 kt del Est/Sud-Est
Temperatura 30°C
Humitat 79%
Pressió 1008 hPa
Visibilitat 10 km o més
Escasses núvols a una alçada de 1900 ft

METAR: RPVP 141200Z 12004KT 9999 FEW019 30/26 Q1008 RMK A2977

Hora: 21:50 (13:50 UTC)

Pronòstic

L'informe es va fer fa 2 hores i 50 minuts, a les 11:00 UTC
Pronòstic vàlid del 14 a les 12 UTC al 15 a les 12 UTC
Vent 6 kt del Est
Visibilitat 10 km o més
Escasses núvols a una alçada de 1900 ft
Núvols disperses a una alçada de 8000 ft
Temporalment
l' 14 a les 12 UTC al 14 a les 18 UTC
Vent 6 kt del Oest
Escasses núvols a una alçada de 1700 ft, Cumulonimbus.
Cel ennuvolat a una alçada de 8000 ft
xàfecs de pluja

TAF: RPVP 141100Z 1412/1512 09006KT 9999 FEW019 SCT080 TEMPO 1412/1418 27006KT -SHRA FEW017CB BKN080

Observacions i pronòstics meteorològics de més de 4000 aeroports (METAR i TAF).

Les estacions disponibles són els punts grocs i vermells al mapa.

Posi el ratolí al punt desitjat per veure el nom de l'estació.

Feu clic per veure les observacions i els pronòstics meteorològics.

Per canviar el mapa: feu clic els botons verds amb una creu de color negre per apropar; al botó verd amb un guió per allunyar la imatge; o en les fletxes verdes per a mapes adjacents.


METAR-TAF: